createdAt,value
2023-01-11T00:01:56.659Z,7.14
2023-01-11T00:04:30.392Z,7.17
2023-01-11T00:06:57.603Z,7.17
2023-01-11T00:09:24.232Z,7.17
2023-01-11T00:11:50.865Z,7.19
2023-01-11T00:14:17.612Z,7.22
2023-01-11T00:16:44.198Z,7.21
2023-01-11T00:19:10.804Z,7.24
2023-01-11T00:21:37.329Z,7.28
2023-01-11T00:24:06.488Z,7.29
2023-01-11T00:26:33.476Z,7.32
2023-01-11T00:29:00.141Z,7.33
2023-01-11T00:31:26.857Z,7.34
2023-01-11T00:33:53.465Z,7.36
2023-01-11T00:36:20.395Z,7.39
2023-01-11T00:38:51.493Z,7.41
2023-01-11T00:41:37.832Z,7.43
2023-01-11T00:44:24.243Z,7.44
2023-01-11T00:47:10.609Z,7.47
2023-01-11T00:49:37.417Z,7.48
2023-01-11T00:52:09.427Z,7.50
2023-01-11T00:54:40.571Z,7.52
2023-01-11T00:57:08.259Z,7.52
2023-01-11T00:59:36.001Z,7.54
2023-01-11T01:02:04.139Z,7.56
2023-01-11T01:04:31.223Z,7.57
2023-01-11T01:06:57.872Z,7.57
2023-01-11T01:09:24.544Z,7.55
2023-01-11T01:11:51.098Z,7.56
2023-01-11T01:14:26.820Z,7.60
2023-01-11T01:16:55.366Z,7.60
2023-01-11T01:19:22.687Z,7.61
2023-01-11T01:21:50.728Z,7.63
2023-01-11T01:24:17.479Z,7.64
2023-01-11T01:26:44.031Z,7.64
2023-01-11T01:29:11.821Z,7.65
2023-01-11T01:31:38.880Z,7.67
2023-01-11T01:34:06.624Z,7.66
2023-01-11T01:36:33.720Z,7.66
2023-01-11T01:39:01.355Z,7.68
2023-01-11T01:41:28.640Z,7.71
2023-01-11T01:43:55.197Z,7.76
2023-01-11T01:46:26.813Z,7.78
2023-01-11T01:48:56.352Z,7.78
2023-01-11T01:51:30.026Z,7.80
2023-01-11T01:54:01.933Z,7.82
2023-01-11T01:56:37.791Z,7.81
2023-01-11T01:59:12.845Z,7.83
2023-01-11T02:01:49.879Z,7.82
2023-01-11T02:04:22.398Z,7.84
2023-01-11T02:06:50.444Z,7.82
2023-01-11T02:09:26.583Z,7.81
2023-01-11T02:11:56.737Z,7.83
2023-01-11T02:14:24.370Z,7.82
2023-01-11T02:16:50.961Z,7.82
2023-01-11T02:19:55.703Z,7.81
2023-01-11T02:22:57.360Z,7.84
2023-01-11T02:26:01.472Z,7.84
2023-01-11T02:28:54.828Z,7.85
2023-01-11T02:31:34.054Z,7.84
2023-01-11T02:34:03.293Z,7.85
2023-01-11T02:36:44.942Z,7.84
2023-01-11T02:39:40.471Z,7.86
2023-01-11T02:42:35.448Z,7.85
2023-01-11T02:45:32.528Z,7.88
2023-01-11T02:48:22.331Z,7.89
2023-01-11T02:51:02.536Z,7.89
2023-01-11T02:53:44.898Z,7.90
2023-01-11T02:56:20.229Z,7.90
2023-01-11T02:58:50.662Z,7.90
2023-01-11T03:01:19.640Z,7.91
2023-01-11T03:03:46.283Z,7.90
2023-01-11T03:06:20.817Z,7.91
2023-01-11T03:09:00.251Z,7.90
2023-01-11T03:11:54.491Z,7.90
2023-01-11T03:14:36.388Z,7.93
2023-01-11T03:17:25.237Z,7.94
2023-01-11T03:19:59.953Z,7.96
2023-01-11T03:22:39.283Z,7.95
2023-01-11T03:25:47.479Z,7.97
2023-01-11T03:28:19.866Z,7.98
2023-01-11T03:31:14.432Z,7.98
2023-01-11T03:33:56.313Z,7.97
2023-01-11T03:36:44.673Z,7.97
2023-01-11T03:39:27.967Z,7.98
2023-01-11T03:41:58.223Z,7.98
2023-01-11T03:44:28.287Z,7.97
2023-01-11T03:47:08.906Z,7.96
2023-01-11T03:49:53.735Z,7.99
2023-01-11T03:52:25.725Z,8.00
2023-01-11T03:54:54.307Z,7.99
2023-01-11T03:57:24.164Z,8.00
2023-01-11T03:59:50.963Z,8.02
2023-01-11T04:02:41.109Z,8.03
2023-01-11T04:05:10.401Z,8.03
2023-01-11T04:07:37.196Z,8.03
2023-01-11T04:10:04.509Z,8.02
2023-01-11T04:12:31.048Z,8.04
2023-01-11T04:14:57.612Z,8.06
2023-01-11T04:17:24.177Z,8.06
2023-01-11T04:19:50.696Z,8.09
2023-01-11T04:22:17.289Z,8.09
2023-01-11T04:24:44.100Z,8.10
2023-01-11T04:27:10.666Z,8.11
2023-01-11T04:29:37.192Z,8.11
2023-01-11T04:32:05.377Z,8.13
2023-01-11T04:34:31.900Z,8.15
2023-01-11T04:36:58.522Z,8.20
2023-01-11T04:39:25.062Z,8.23
2023-01-11T04:42:10.427Z,8.23
2023-01-11T04:44:36.979Z,8.28
2023-01-11T04:47:03.582Z,8.30
2023-01-11T04:49:30.157Z,8.32
2023-01-11T04:51:56.681Z,8.34
2023-01-11T04:54:23.255Z,8.35
2023-01-11T04:56:49.815Z,8.37
2023-01-11T04:59:18.436Z,8.42
2023-01-11T05:01:45.565Z,8.40
2023-01-11T05:04:13.596Z,8.40
2023-01-11T05:06:40.418Z,8.45
2023-01-11T05:09:12.147Z,8.46
2023-01-11T05:11:38.835Z,8.47
2023-01-11T05:14:05.413Z,8.51
2023-01-11T05:16:32.039Z,8.50
2023-01-11T05:19:03.302Z,8.53
2023-01-11T05:21:32.574Z,8.54
2023-01-11T05:24:01.194Z,8.57
2023-01-11T05:26:32.665Z,8.60
2023-01-11T05:29:04.326Z,8.70
2023-01-11T05:31:32.085Z,8.75
2023-01-11T05:33:59.153Z,8.77
2023-01-11T05:36:27.077Z,8.88
2023-01-11T05:38:55.245Z,8.91
2023-01-11T05:41:24.553Z,8.95
2023-01-11T05:44:11.058Z,8.96
2023-01-11T05:46:39.420Z,8.98
2023-01-11T05:49:07.288Z,9.01
2023-01-11T05:51:34.336Z,9.05
2023-01-11T05:54:02.210Z,9.04
2023-01-11T05:56:29.051Z,9.04
2023-01-11T05:58:55.839Z,9.10
2023-01-11T06:01:24.139Z,9.08
2023-01-11T06:03:51.328Z,9.09
2023-01-11T06:06:19.539Z,9.07
2023-01-11T06:08:47.485Z,9.08
2023-01-11T06:11:15.048Z,9.12
2023-01-11T06:13:42.291Z,9.13
2023-01-11T06:16:15.004Z,9.12
2023-01-11T06:18:44.822Z,9.11
2023-01-11T06:21:12.363Z,9.09
2023-01-11T06:23:42.107Z,9.09
2023-01-11T06:26:11.328Z,9.15
2023-01-11T06:28:38.850Z,9.15
2023-01-11T06:31:06.559Z,9.18
2023-01-11T06:33:33.620Z,9.19
2023-01-11T06:36:07.915Z,9.21
2023-01-11T06:38:35.009Z,9.28
2023-01-11T06:41:03.437Z,9.34
2023-01-11T06:43:31.162Z,9.46
2023-01-11T06:45:58.966Z,9.56
2023-01-11T06:48:26.408Z,9.61
2023-01-11T06:50:55.119Z,9.70
2023-01-11T06:53:22.488Z,9.76
2023-01-11T06:55:56.165Z,9.77
2023-01-11T06:58:23.949Z,9.73
2023-01-11T07:00:52.604Z,9.72
2023-01-11T07:03:20.650Z,9.78
2023-01-11T07:05:47.458Z,9.82
2023-01-11T07:08:14.031Z,9.84
2023-01-11T07:10:44.113Z,9.92
2023-01-11T07:13:19.209Z,9.93
2023-01-11T07:15:54.004Z,9.95
2023-01-11T07:18:20.927Z,9.95
2023-01-11T07:20:47.758Z,9.95
2023-01-11T07:23:14.702Z,9.97
2023-01-11T07:25:41.502Z,9.91
2023-01-11T07:28:09.284Z,9.97
2023-01-11T07:30:55.426Z,9.98
2023-01-11T07:33:23.976Z,10.00
2023-01-11T07:35:50.566Z,9.96
2023-01-11T07:38:19.685Z,9.97
2023-01-11T07:40:46.320Z,9.93
2023-01-11T07:43:19.451Z,9.93
2023-01-11T07:45:50.252Z,9.93
2023-01-11T07:48:24.719Z,9.91
2023-01-11T07:50:52.606Z,9.91
2023-01-11T07:53:19.253Z,9.94
2023-01-11T07:55:47.250Z,9.94
2023-01-11T07:58:15.155Z,9.94
2023-01-11T08:00:41.948Z,9.94
2023-01-11T08:03:09.723Z,9.96
2023-01-11T08:05:36.723Z,9.97
2023-01-11T08:08:04.066Z,9.98
2023-01-11T08:10:30.690Z,10.01
2023-01-11T08:13:16.270Z,10.00
2023-01-11T08:15:42.951Z,10.05
2023-01-11T08:18:11.656Z,10.02
2023-01-11T08:20:39.135Z,10.03
2023-01-11T08:23:08.671Z,10.01
2023-01-11T08:25:35.874Z,10.01
2023-01-11T08:28:04.604Z,10.00
2023-01-11T08:30:31.198Z,9.98
2023-01-11T08:33:00.604Z,9.95
2023-01-11T08:35:30.431Z,9.94
2023-01-11T08:37:57.016Z,9.90
2023-01-11T08:40:25.564Z,9.92
2023-01-11T08:42:56.738Z,9.92
2023-01-11T08:45:23.390Z,9.89
2023-01-11T08:47:51.436Z,9.83
2023-01-11T08:50:18.790Z,9.74
2023-01-11T08:52:46.246Z,9.70
2023-01-11T08:55:12.866Z,9.70
2023-01-11T08:57:39.396Z,9.71
2023-01-11T09:00:07.677Z,9.65
2023-01-11T09:02:34.339Z,9.65
2023-01-11T09:05:00.845Z,9.63
2023-01-11T09:07:27.418Z,9.63
2023-01-11T09:09:53.923Z,9.60
2023-01-11T09:12:20.467Z,9.65
2023-01-11T09:14:46.995Z,9.63
2023-01-11T09:17:13.517Z,9.62
2023-01-11T09:19:40.045Z,9.59
2023-01-11T09:22:06.581Z,9.58
2023-01-11T09:24:33.136Z,9.55
2023-01-11T09:27:00.447Z,9.55
2023-01-11T09:29:27.166Z,9.56
2023-01-11T09:31:53.820Z,9.55
2023-01-11T09:34:21.139Z,9.56
2023-01-11T09:36:49.222Z,9.57
2023-01-11T09:39:18.787Z,9.60
2023-01-11T09:42:11.162Z,9.59
2023-01-11T09:44:49.923Z,9.57
2023-01-11T09:47:41.060Z,9.58
2023-01-11T09:50:28.075Z,9.56
2023-01-11T09:53:03.319Z,9.53
2023-01-11T09:55:37.234Z,9.53
2023-01-11T09:58:12.917Z,9.55
2023-01-11T10:01:01.160Z,9.51
2023-01-11T10:03:45.904Z,9.50
2023-01-11T10:06:21.249Z,9.49
2023-01-11T10:18:32.240Z,9.53
2023-01-11T10:19:17.073Z,9.52
2023-01-11T10:21:42.720Z,9.53
2023-01-11T10:24:23.354Z,9.54
2023-01-11T10:26:53.061Z,9.57
2023-01-11T10:29:53.231Z,9.58
2023-01-11T10:32:50.457Z,9.58
2023-01-11T10:35:47.963Z,9.57
2023-01-11T10:38:56.864Z,9.60
2023-01-11T10:41:34.253Z,9.63
2023-01-11T10:44:10.141Z,9.58
2023-01-11T10:46:41.586Z,9.55
2023-01-11T10:49:33.745Z,9.55
2023-01-11T10:52:22.437Z,9.53
2023-01-11T10:54:54.792Z,9.54
2023-01-11T10:58:01.275Z,9.58
2023-01-11T11:01:17.301Z,9.63
2023-01-11T11:03:58.319Z,9.77
2023-01-11T11:06:53.994Z,9.85
2023-01-11T11:09:20.577Z,9.82
2023-01-11T11:11:54.421Z,9.83
2023-01-11T11:14:30.813Z,9.94
2023-01-11T11:17:23.877Z,10.05
2023-01-11T11:19:51.502Z,10.13
2023-01-11T11:22:18.862Z,10.19
2023-01-11T11:24:54.909Z,10.18
2023-01-11T11:27:33.604Z,10.16
2023-01-11T11:30:00.259Z,10.12
2023-01-11T11:32:31.530Z,10.08
2023-01-11T11:34:58.745Z,10.12
2023-01-11T11:37:27.476Z,10.13
2023-01-11T11:39:54.510Z,10.16
2023-01-11T11:42:22.011Z,10.17
2023-01-11T11:45:11.013Z,10.17
2023-01-11T11:47:38.285Z,10.14
2023-01-11T11:50:37.026Z,10.14
2023-01-11T11:53:07.109Z,10.11
2023-01-11T11:55:35.110Z,10.09
2023-01-11T11:58:08.634Z,10.03
2023-01-11T12:00:44.348Z,10.01
2023-01-11T12:03:17.563Z,9.92
2023-01-11T12:06:00.795Z,9.87
2023-01-11T12:08:29.710Z,9.84
2023-01-11T12:11:02.845Z,9.82
2023-01-11T12:13:38.243Z,9.78
2023-01-11T12:16:21.070Z,9.82
2023-01-11T12:18:47.885Z,9.83
2023-01-11T12:21:22.000Z,9.82
2023-01-11T12:24:16.716Z,9.88
2023-01-11T12:27:08.349Z,9.92
2023-01-11T12:29:49.920Z,9.93
2023-01-11T12:32:37.643Z,9.88
2023-01-11T12:35:34.967Z,9.83
2023-01-11T12:38:24.719Z,9.78
2023-01-11T12:41:01.612Z,9.73
2023-01-11T12:43:48.170Z,9.70
2023-01-11T12:46:25.164Z,9.71
2023-01-11T12:48:57.734Z,9.69
2023-01-11T12:51:40.200Z,9.74
2023-01-11T12:54:25.784Z,9.74
2023-01-11T12:57:14.300Z,9.73
2023-01-11T13:00:07.474Z,9.75
2023-01-11T13:03:21.547Z,9.77
2023-01-11T13:06:06.717Z,9.84
2023-01-11T13:09:02.681Z,9.88
2023-01-11T13:11:58.799Z,9.88
2023-01-11T13:14:53.980Z,9.93
2023-01-11T13:17:28.031Z,9.92
2023-01-11T13:20:14.841Z,9.95
2023-01-11T13:22:49.613Z,9.97
2023-01-11T13:25:24.839Z,9.97
2023-01-11T13:27:54.596Z,9.97
2023-01-11T13:30:25.711Z,10.01
2023-01-11T13:33:00.522Z,10.03
2023-01-11T13:35:58.040Z,10.03
2023-01-11T13:38:58.461Z,9.97
2023-01-11T13:41:35.207Z,10.02
2023-01-11T13:44:15.460Z,10.03
2023-01-11T13:47:12.122Z,10.04
2023-01-11T13:49:48.284Z,10.09
2023-01-11T13:52:20.672Z,10.05
2023-01-11T13:55:25.292Z,10.06
2023-01-11T13:58:13.835Z,10.03
2023-01-11T14:00:55.388Z,10.06
2023-01-11T14:03:49.857Z,10.05
2023-01-11T14:06:42.760Z,10.10
2023-01-11T14:09:28.145Z,10.13
2023-01-11T14:13:00.079Z,10.16
2023-01-11T14:15:47.893Z,10.11
2023-01-11T14:18:14.514Z,10.13
2023-01-11T14:20:51.190Z,10.12
2023-01-11T14:23:28.006Z,10.11
2023-01-11T14:26:13.201Z,10.11
2023-01-11T14:28:48.865Z,10.11
2023-01-11T14:31:49.560Z,10.12
2023-01-11T14:34:40.460Z,10.13
2023-01-11T14:37:12.999Z,10.13
2023-01-11T14:40:16.982Z,10.13
2023-01-11T14:43:14.762Z,10.13
2023-01-11T14:46:06.535Z,10.08
2023-01-11T14:48:54.915Z,10.09
2023-01-11T14:51:33.366Z,10.06
2023-01-11T14:54:16.911Z,10.08
2023-01-11T14:56:43.469Z,10.06
2023-01-11T14:59:31.592Z,10.02
2023-01-11T15:02:04.371Z,9.97
2023-01-11T15:04:39.047Z,9.93
2023-01-11T15:07:35.550Z,9.92
2023-01-11T15:10:25.276Z,9.88
2023-01-11T15:12:56.166Z,9.82
2023-01-11T15:15:47.146Z,9.78
2023-01-11T15:18:18.440Z,9.74
2023-01-11T15:20:53.472Z,9.70
2023-01-11T15:23:21.154Z,9.68
2023-01-11T15:25:49.465Z,9.66
2023-01-11T15:28:57.215Z,9.65
2023-01-11T15:31:39.233Z,9.60
2023-01-11T15:34:18.383Z,9.55
2023-01-11T15:37:02.363Z,9.53
2023-01-11T15:39:47.497Z,9.55
2023-01-11T15:42:17.175Z,9.52
2023-01-11T15:45:20.742Z,9.50
2023-01-11T15:48:01.079Z,9.48
2023-01-11T15:50:30.553Z,9.47
2023-01-11T15:53:42.766Z,9.41
2023-01-11T15:56:35.152Z,9.40
2023-01-11T15:59:14.193Z,9.37
2023-01-11T16:02:29.733Z,9.31
2023-01-11T16:05:18.469Z,9.30
2023-01-11T16:07:54.525Z,9.30
2023-01-11T16:10:42.847Z,9.27
2023-01-11T16:13:41.858Z,9.28
2023-01-11T16:16:22.291Z,9.26
2023-01-11T16:18:55.450Z,9.25
2023-01-11T16:21:34.862Z,9.21
2023-01-11T16:24:07.316Z,9.20
2023-01-11T16:26:37.035Z,9.17
2023-01-11T16:29:12.858Z,9.15
2023-01-11T16:31:54.593Z,9.17
2023-01-11T16:34:21.564Z,9.18
2023-01-11T16:36:49.274Z,9.17
2023-01-11T16:39:21.853Z,9.19
2023-01-11T16:42:03.299Z,9.19
2023-01-11T16:44:41.159Z,9.18
2023-01-11T16:47:12.227Z,9.19
2023-01-11T16:49:40.994Z,9.17
2023-01-11T16:52:34.777Z,9.15
2023-01-11T16:55:04.321Z,9.13
2023-01-11T16:57:36.372Z,9.15
2023-01-11T17:00:18.837Z,9.16
2023-01-11T17:02:48.904Z,9.12
2023-01-11T17:05:23.995Z,9.11
2023-01-11T17:07:50.723Z,9.09
2023-01-11T17:10:23.502Z,9.07
2023-01-11T17:13:39.958Z,9.06
2023-01-11T17:16:13.559Z,9.04
2023-01-11T17:18:41.624Z,9.02
2023-01-11T17:21:24.945Z,9.01
2023-01-11T17:23:54.912Z,9.01
2023-01-11T17:26:25.647Z,8.99
2023-01-11T17:28:57.307Z,8.99
2023-01-11T17:31:32.217Z,8.95
2023-01-11T17:34:02.086Z,8.90
2023-01-11T17:36:29.365Z,8.89
2023-01-11T17:38:58.108Z,8.89
2023-01-11T17:41:46.419Z,8.87
2023-01-11T17:44:38.251Z,8.90
2023-01-11T17:47:08.591Z,8.95
2023-01-11T17:49:36.780Z,8.99
2023-01-11T17:52:38.982Z,9.02
2023-01-11T17:55:10.213Z,9.02
2023-01-11T17:57:36.737Z,9.04
2023-01-11T18:00:38.945Z,9.02
2023-01-11T18:03:10.675Z,9.02
2023-01-11T18:05:37.649Z,9.00
2023-01-11T18:08:09.632Z,9.01
2023-01-11T18:10:40.079Z,8.99
2023-01-11T18:13:20.017Z,8.99
2023-01-11T18:15:47.418Z,8.96
2023-01-11T18:18:38.772Z,8.92
2023-01-11T18:21:25.300Z,8.89
2023-01-11T18:24:10.521Z,8.85
2023-01-11T18:26:39.816Z,8.83
2023-01-11T18:29:17.324Z,8.79
2023-01-11T18:31:43.861Z,8.78
2023-01-11T18:34:13.475Z,8.73
2023-01-11T18:36:39.972Z,8.70
2023-01-11T18:39:11.256Z,8.70
2023-01-11T18:41:57.553Z,8.69
2023-01-11T18:44:25.122Z,8.67
2023-01-11T18:46:51.779Z,8.68
2023-01-11T18:49:18.296Z,8.69
2023-01-11T18:51:45.355Z,8.71
2023-01-11T18:54:16.565Z,8.72
2023-01-11T18:56:43.325Z,8.75
2023-01-11T18:59:10.370Z,8.75
2023-01-11T19:01:52.648Z,8.72
2023-01-11T19:04:24.859Z,8.73
2023-01-11T19:06:52.473Z,8.72
2023-01-11T19:09:19.082Z,8.71
2023-01-11T19:11:47.060Z,8.71
2023-01-11T19:14:13.698Z,8.69
2023-01-11T19:16:40.307Z,8.67
2023-01-11T19:19:06.990Z,8.66
2023-01-11T19:21:33.540Z,8.66
2023-01-11T19:24:00.199Z,8.63
2023-01-11T19:26:27.846Z,8.63
2023-01-11T19:28:54.529Z,8.65
2023-01-11T19:31:21.132Z,8.66
2023-01-11T19:33:47.815Z,8.65
2023-01-11T19:36:14.383Z,8.68
2023-01-11T19:38:40.955Z,8.66
2023-01-11T19:41:16.050Z,8.68
2023-01-11T19:43:47.320Z,8.68
2023-01-11T19:46:19.532Z,8.69
2023-01-11T19:48:52.464Z,8.71
2023-01-11T19:51:28.184Z,8.74
2023-01-11T19:53:57.175Z,8.74
2023-01-11T19:56:26.725Z,8.76
2023-01-11T19:58:53.315Z,8.75
2023-01-11T20:01:20.001Z,8.73
2023-01-11T20:03:46.676Z,8.75
2023-01-11T20:06:13.190Z,8.76
2023-01-11T20:08:41.195Z,8.76
2023-01-11T20:11:10.769Z,8.77
2023-01-11T20:13:38.130Z,8.76
2023-01-11T20:16:11.044Z,8.78
2023-01-11T20:18:37.736Z,8.80
2023-01-11T20:21:07.417Z,8.80
2023-01-11T20:23:36.005Z,8.79
2023-01-11T20:26:05.434Z,8.80
2023-01-11T20:28:35.549Z,8.79
2023-01-11T20:31:06.528Z,8.78
2023-01-11T20:33:33.077Z,8.77
2023-01-11T20:35:59.627Z,8.80
2023-01-11T20:38:26.202Z,8.80
2023-01-11T20:40:53.282Z,8.79
2023-01-11T20:43:22.173Z,8.81
2023-01-11T20:46:05.260Z,8.82
2023-01-11T20:48:34.108Z,8.81
2023-01-11T20:51:01.099Z,8.84
2023-01-11T20:53:27.847Z,8.85
2023-01-11T20:55:54.955Z,8.87
2023-01-11T20:58:22.266Z,8.86
2023-01-11T21:00:48.973Z,8.86
2023-01-11T21:03:15.688Z,8.88
2023-01-11T21:05:42.338Z,8.88
2023-01-11T21:08:11.597Z,8.89
2023-01-11T21:10:38.289Z,8.86
2023-01-11T21:13:04.908Z,8.87
2023-01-11T21:15:31.498Z,8.85
2023-01-11T21:18:01.078Z,8.83
2023-01-11T21:20:31.198Z,8.87
2023-01-11T21:23:00.935Z,8.88
2023-01-11T21:25:28.304Z,8.86
2023-01-11T21:28:06.096Z,8.83
2023-01-11T21:30:32.908Z,8.85
2023-01-11T21:33:01.711Z,8.86
2023-01-11T21:35:28.332Z,8.87
2023-01-11T21:37:55.379Z,8.92
2023-01-11T21:40:32.647Z,8.94
2023-01-11T21:42:59.341Z,8.96
2023-01-11T21:45:29.192Z,8.97
2023-01-11T21:47:55.800Z,9.02
2023-01-11T21:50:25.184Z,9.01
2023-01-11T21:52:56.371Z,9.03
2023-01-11T21:55:23.024Z,9.02
2023-01-11T21:57:51.721Z,9.02
2023-01-11T22:00:18.981Z,9.06
2023-01-11T22:02:45.514Z,9.05
2023-01-11T22:05:14.943Z,9.07
2023-01-11T22:07:44.272Z,9.06
2023-01-11T22:10:15.078Z,9.06
2023-01-11T22:12:41.960Z,9.08
2023-01-11T22:15:11.706Z,9.08
2023-01-11T22:17:38.174Z,9.07
2023-01-11T22:20:05.300Z,9.07
2023-01-11T22:22:32.016Z,9.09
2023-01-11T22:24:58.659Z,9.05
2023-01-11T22:27:25.332Z,9.05
2023-01-11T22:29:52.318Z,9.01
2023-01-11T22:32:18.903Z,8.96
2023-01-11T22:34:45.637Z,8.96
2023-01-11T22:37:12.209Z,8.92
2023-01-11T22:39:40.554Z,8.91
2023-01-11T22:42:07.492Z,8.87
2023-01-11T22:44:34.091Z,8.85
2023-01-11T22:47:01.400Z,8.78
2023-01-11T22:49:27.940Z,8.73
2023-01-11T22:51:54.525Z,8.68
2023-01-11T22:54:21.198Z,8.67
2023-01-11T22:56:47.828Z,8.64
2023-01-11T22:59:14.384Z,8.63
2023-01-11T23:01:43.204Z,8.61
2023-01-11T23:04:13.457Z,8.59
2023-01-11T23:06:42.205Z,8.62
2023-01-11T23:09:22.523Z,8.55
2023-01-11T23:12:09.452Z,8.54
2023-01-11T23:14:36.322Z,8.53
2023-01-11T23:20:20.785Z,8.48
2023-01-11T23:22:52.735Z,8.48
2023-01-11T23:25:22.424Z,8.50
2023-01-11T23:27:49.023Z,8.48
2023-01-11T23:30:19.115Z,8.48
2023-01-11T23:32:46.675Z,8.40
2023-01-11T23:35:13.385Z,8.39
2023-01-11T23:37:40.022Z,8.34
2023-01-11T23:40:07.373Z,8.38
2023-01-11T23:42:35.570Z,8.30
2023-01-11T23:45:02.185Z,8.25
2023-01-11T23:47:31.513Z,8.25
2023-01-11T23:50:01.024Z,8.25
2023-01-11T23:52:31.683Z,8.23
2023-01-11T23:54:58.389Z,8.21
2023-01-11T23:57:26.133Z,8.19
2023-01-11T23:59:52.661Z,8.17
